Time;durP1;ratioP1;P1;durP2;ratioP2;P2;SDS_P1;SDS_P2;PMS_P1;PMS_P2;Temp;Humidity;BMP_temperature;BMP_pressure;BME280_temperature;BME280_humidity;BME280_pressure;Samples;Min_cycle;Max_cycle;Signal;HPM_P1;HPM_P2
2022/02/15 00:01:07;;;;;;;1.00;0.70;;;7.70;99.90;;;;;;4976614;28;20026;-76
2022/02/15 00:03:32;;;;;;;1.23;0.65;;;7.60;99.90;;;;;;4977083;28;20031;-77
2022/02/15 00:05:58;;;;;;;1.45;0.90;;;7.60;99.90;;;;;;4959704;28;20027;-78
2022/02/15 00:08:24;;;;;;;2.42;1.10;;;7.50;99.90;;;;;;4957023;28;20031;-76
2022/02/15 00:10:51;;;;;;;1.25;0.95;;;7.50;99.90;;;;;;4973791;28;20036;-75
2022/02/15 00:13:17;;;;;;;1.42;0.80;;;7.50;99.90;;;;;;4968697;28;20489;-76
2022/02/15 00:15:43;;;;;;;2.15;1.00;;;7.40;99.90;;;;;;4976510;28;20058;-75
2022/02/15 00:18:09;;;;;;;1.10;0.90;;;7.40;99.90;;;;;;4992804;28;20098;-76
2022/02/15 00:20:35;;;;;;;1.83;1.20;;;7.40;99.90;;;;;;4976114;28;20410;-76
2022/02/15 00:23:01;;;;;;;3.00;0.90;;;7.40;99.90;;;;;;4975379;28;20026;-75
2022/02/15 00:25:26;;;;;;;2.00;1.10;;;7.40;99.90;;;;;;4993404;28;20519;-76
2022/02/15 00:27:53;;;;;;;1.42;0.75;;;7.40;99.90;;;;;;4975102;28;20066;-76
2022/02/15 00:30:19;;;;;;;2.23;1.07;;;7.40;99.90;;;;;;4956780;28;20391;-77
2022/02/15 00:32:44;;;;;;;2.33;1.08;;;7.40;99.90;;;;;;4956860;28;20154;-76
2022/02/15 00:35:11;;;;;;;1.52;1.20;;;7.30;99.90;;;;;;4956264;28;20476;-77
2022/02/15 00:37:37;;;;;;;2.75;1.27;;;7.30;99.90;;;;;;4956896;28;20029;-77
2022/02/15 00:40:04;;;;;;;1.98;0.80;;;7.30;99.90;;;;;;4957159;28;20034;-77
2022/02/15 00:42:30;;;;;;;1.65;0.70;;;7.30;99.90;;;;;;4975775;28;20052;-76
2022/02/15 00:44:56;;;;;;;1.35;1.00;;;7.30;99.90;;;;;;4974866;28;20058;-75
2022/02/15 00:47:22;;;;;;;1.35;0.90;;;7.30;99.90;;;;;;4975245;28;20026;-79
2022/02/15 00:49:47;;;;;;;0.95;0.73;;;7.30;99.90;;;;;;4975586;28;20038;-79
2022/02/15 00:52:13;;;;;;;2.22;1.02;;;7.30;99.90;;;;;;4975187;28;20022;-77
2022/02/15 00:54:39;;;;;;;2.08;1.10;;;7.20;99.90;;;;;;4975392;28;20080;-76
2022/02/15 00:57:05;;;;;;;1.15;0.70;;;7.20;99.90;;;;;;4974579;28;20034;-76
2022/02/15 00:59:31;;;;;;;1.52;0.90;;;7.20;99.90;;;;;;4977585;28;20042;-77
2022/02/15 01:01:57;;;;;;;1.27;0.73;;;7.30;99.90;;;;;;4979485;28;20060;-78
2022/02/15 01:04:22;;;;;;;3.77;1.13;;;7.30;99.90;;;;;;4979797;28;20460;-78
2022/02/15 01:06:48;;;;;;;2.67;1.00;;;7.20;99.90;;;;;;4979706;28;20104;-78
2022/02/15 01:09:14;;;;;;;1.50;1.00;;;7.20;99.90;;;;;;4979190;28;20030;-77
2022/02/15 01:11:39;;;;;;;1.50;0.90;;;7.20;99.90;;;;;;4979406;28;20037;-76
2022/02/15 01:14:05;;;;;;;1.67;1.05;;;7.10;99.90;;;;;;4972745;28;20027;-78
2022/02/15 01:16:31;;;;;;;3.90;1.05;;;7.10;99.90;;;;;;4997087;28;20023;-78
2022/02/15 01:18:56;;;;;;;2.13;1.13;;;7.00;99.90;;;;;;4979003;28;20133;-77
2022/02/15 01:21:23;;;;;;;1.38;0.90;;;7.10;99.90;;;;;;4980126;28;20031;-78
2022/02/15 01:23:48;;;;;;;2.40;0.80;;;7.10;99.90;;;;;;4979903;28;20080;-80
2022/02/15 01:26:14;;;;;;;2.50;1.10;;;7.10;99.90;;;;;;4979434;28;20027;-77
2022/02/15 01:28:39;;;;;;;1.48;0.93;;;7.10;99.90;;;;;;4980366;28;20117;-77
2022/02/15 01:31:05;;;;;;;2.03;0.93;;;7.20;99.90;;;;;;4979685;28;20022;-77
2022/02/15 01:33:31;;;;;;;2.05;1.20;;;7.10;99.90;;;;;;4979881;28;20062;-77
2022/02/15 01:35:59;;;;;;;1.35;0.90;;;7.20;99.90;;;;;;4979614;28;20050;-78
2022/02/15 01:38:25;;;;;;;1.70;0.90;;;7.20;99.90;;;;;;4979791;28;20102;-77
2022/02/15 01:40:50;;;;;;;2.10;0.95;;;7.20;99.90;;;;;;4979487;28;20030;-80
2022/02/15 01:43:16;;;;;;;3.03;1.10;;;7.20;99.90;;;;;;4978835;28;20034;-77
2022/02/15 01:45:41;;;;;;;3.15;1.15;;;7.30;99.90;;;;;;4979501;28;20023;-77
2022/02/15 01:48:09;;;;;;;1.60;0.80;;;7.30;99.90;;;;;;4978777;28;20102;-77
2022/02/15 01:50:34;;;;;;;1.52;1.00;;;7.30;99.90;;;;;;4979199;28;20121;-78
2022/02/15 01:53:00;;;;;;;1.73;0.93;;;7.20;99.90;;;;;;4977854;28;20447;-78
2022/02/15 01:55:26;;;;;;;2.10;0.75;;;7.20;99.90;;;;;;4976426;28;20101;-78
2022/02/15 01:57:52;;;;;;;2.25;1.00;;;7.20;99.90;;;;;;4979053;28;20027;-79
2022/02/15 02:00:19;;;;;;;1.73;0.90;;;7.20;99.90;;;;;;4979388;28;20176;-77
2022/02/15 02:02:45;;;;;;;2.60;1.00;;;7.30;99.90;;;;;;4979201;28;20022;-76
2022/02/15 02:07:57;;;;;;;1.65;0.80;;;7.30;99.90;;;;;;4996105;28;20046;-78
2022/02/15 02:10:22;;;;;;;3.08;1.27;;;7.30;99.90;;;;;;4978292;28;20463;-78
2022/02/15 02:12:48;;;;;;;2.75;1.08;;;7.40;99.90;;;;;;4979521;28;20046;-78
2022/02/15 02:15:19;;;;;;;2.78;0.90;;;7.30;99.90;;;;;;4978859;28;20471;-78
2022/02/15 02:17:46;;;;;;;1.52;1.00;;;7.40;99.90;;;;;;4978794;28;20026;-77
2022/02/15 02:20:13;;;;;;;2.25;1.20;;;7.40;99.90;;;;;;4978251;28;20499;-78
2022/02/15 02:22:39;;;;;;;5.95;0.90;;;7.40;99.90;;;;;;4979497;28;20026;-78
2022/02/15 02:25:05;;;;;;;4.80;1.13;;;7.40;99.90;;;;;;4996136;28;20041;-78
2022/02/15 02:27:33;;;;;;;2.58;1.00;;;7.50;99.90;;;;;;4979045;28;20050;-78
2022/02/15 02:29:59;;;;;;;2.08;0.90;;;7.50;99.90;;;;;;4978457;28;20026;-78
2022/02/15 02:32:27;;;;;;;2.42;0.73;;;7.50;99.90;;;;;;4978903;28;20053;-77
2022/02/15 02:34:54;;;;;;;3.13;0.90;;;7.50;99.90;;;;;;4995694;28;20105;-79
2022/02/15 02:37:20;;;;;;;4.03;0.82;;;7.60;99.90;;;;;;4979306;28;20026;-78
2022/02/15 02:39:49;;;;;;;2.08;0.70;;;7.60;99.90;;;;;;4978729;28;20034;-78
2022/02/15 02:42:20;;;;;;;1.75;0.90;;;7.60;99.90;;;;;;4978303;28;20544;-78
2022/02/15 02:44:47;;;;;;;3.13;0.90;;;7.60;99.90;;;;;;4978890;28;20360;-77
2022/02/15 02:47:13;;;;;;;2.97;1.13;;;7.60;99.90;;;;;;4978069;28;20479;-77
2022/02/15 02:49:39;;;;;;;2.83;1.00;;;7.60;99.90;;;;;;4978687;28;20383;-77
2022/02/15 02:52:06;;;;;;;2.40;1.02;;;7.60;99.90;;;;;;4978229;28;20077;-77
2022/02/15 02:54:32;;;;;;;2.35;0.70;;;7.60;99.90;;;;;;4978572;28;20031;-77
2022/02/15 02:57:03;;;;;;;3.13;0.90;;;7.60;99.90;;;;;;4977993;28;20077;-77
2022/02/15 02:59:29;;;;;;;3.42;1.00;;;7.70;99.90;;;;;;4978626;28;20033;-77
2022/02/15 03:01:55;;;;;;;0.95;0.77;;;7.70;99.90;;;;;;4977992;28;20031;-79
2022/02/15 03:04:21;;;;;;;2.00;0.80;;;7.70;99.90;;;;;;4978080;28;20030;-78
2022/02/15 03:06:47;;;;;;;2.42;0.90;;;7.70;99.90;;;;;;4978384;28;20026;-77
2022/02/15 03:09:13;;;;;;;1.80;1.00;;;7.70;99.90;;;;;;4977870;28;20058;-77
2022/02/15 03:11:39;;;;;;;1.88;1.00;;;7.70;99.90;;;;;;4978138;28;20089;-77
2022/02/15 03:14:05;;;;;;;1.17;0.80;;;7.70;99.90;;;;;;4977407;28;20089;-77
2022/02/15 03:16:31;;;;;;;4.07;0.80;;;7.70;99.90;;;;;;4977883;28;20026;-78
2022/02/15 03:18:56;;;;;;;2.65;1.27;;;7.60;99.90;;;;;;4977452;28;20076;-80
2022/02/15 03:21:22;;;;;;;2.05;0.80;;;7.60;99.90;;;;;;4977854;28;20486;-78
2022/02/15 03:23:48;;;;;;;3.38;1.40;;;7.50;99.90;;;;;;4978060;28;20022;-78
2022/02/15 03:26:14;;;;;;;2.63;1.00;;;7.50;99.90;;;;;;4994406;28;20027;-77
2022/02/15 03:28:40;;;;;;;2.17;1.00;;;7.50;99.90;;;;;;4977876;28;20129;-77
2022/02/15 03:31:06;;;;;;;1.83;0.88;;;7.50;99.90;;;;;;4994900;28;20065;-77
2022/02/15 03:33:33;;;;;;;1.10;0.90;;;7.50;99.90;;;;;;4977790;28;20026;-77
2022/02/15 03:35:59;;;;;;;2.70;0.90;;;7.50;99.90;;;;;;4977276;28;20483;-78
2022/02/15 03:38:25;;;;;;;1.48;0.75;;;7.50;99.90;;;;;;4977714;28;20145;-78
2022/02/15 03:43:35;;;;;;;2.90;1.00;;;7.50;99.90;;;;;;4995298;28;20037;-78
2022/02/15 03:46:01;;;;;;;1.43;1.00;;;7.50;99.90;;;;;;4977465;28;20030;-79
2022/02/15 03:48:26;;;;;;;3.00;0.90;;;7.50;99.90;;;;;;4977786;28;20479;-78
2022/02/15 03:50:52;;;;;;;2.30;0.83;;;7.60;99.90;;;;;;4977576;28;20030;-78
2022/02/15 03:53:18;;;;;;;1.60;1.00;;;7.60;99.90;;;;;;4977193;28;20022;-78
2022/02/15 03:55:45;;;;;;;3.78;0.85;;;7.60;99.90;;;;;;4977753;28;20053;-78
2022/02/15 03:58:11;;;;;;;4.03;1.13;;;7.60;99.90;;;;;;4976625;28;20181;-78
2022/02/15 04:00:37;;;;;;;4.27;1.10;;;7.50;99.90;;;;;;4977539;28;20512;-78
2022/02/15 04:03:04;;;;;;;2.60;1.03;;;7.50;99.90;;;;;;4976968;28;20479;-79
2022/02/15 04:05:30;;;;;;;2.73;1.17;;;7.50;99.90;;;;;;4977323;28;20018;-78
2022/02/15 04:07:55;;;;;;;2.47;1.10;;;7.50;99.90;;;;;;4977164;28;20101;-78
2022/02/15 04:10:21;;;;;;;1.27;0.90;;;7.50;99.90;;;;;;4976353;28;20026;-78
2022/02/15 04:12:48;;;;;;;2.38;1.10;;;7.50;99.90;;;;;;4977282;28;20467;-78
2022/02/15 04:15:15;;;;;;;2.63;1.33;;;7.50;99.90;;;;;;4976856;28;20050;-78
2022/02/15 04:17:41;;;;;;;6.05;1.27;;;7.50;99.90;;;;;;4977308;28;20543;-78
2022/02/15 04:20:07;;;;;;;2.30;0.82;;;7.50;99.90;;;;;;4973029;28;20101;-77
2022/02/15 04:22:34;;;;;;;2.45;0.98;;;7.50;99.90;;;;;;4958038;28;20109;-77
2022/02/15 04:25:00;;;;;;;3.30;1.10;;;7.50;99.90;;;;;;4973305;28;20427;-81
2022/02/15 04:27:27;;;;;;;3.20;0.95;;;7.50;99.90;;;;;;4973347;28;20030;-77
2022/02/15 04:29:52;;;;;;;7.70;1.10;;;7.50;99.90;;;;;;4973543;28;20031;-77
2022/02/15 04:32:18;;;;;;;2.20;0.93;;;7.50;99.90;;;;;;4972775;28;20564;-78
2022/02/15 04:34:44;;;;;;;2.72;0.90;;;7.50;99.90;;;;;;4973883;28;20061;-78
2022/02/15 04:37:10;;;;;;;1.45;0.90;;;7.50;99.90;;;;;;4973066;28;20119;-78
2022/02/15 04:39:35;;;;;;;5.05;0.95;;;7.50;99.90;;;;;;4973663;28;20464;-79
2022/02/15 04:42:01;;;;;;;4.07;1.65;;;7.50;99.90;;;;;;4973660;28;20031;-79
2022/02/15 04:44:27;;;;;;;2.47;1.25;;;7.50;99.90;;;;;;4973747;28;20456;-78
2022/02/15 04:46:52;;;;;;;1.63;0.93;;;7.50;99.90;;;;;;4973823;28;20030;-78
2022/02/15 04:49:18;;;;;;;3.17;0.73;;;7.40;99.90;;;;;;4972905;28;20041;-77
2022/02/15 04:51:43;;;;;;;2.17;0.95;;;7.50;99.90;;;;;;4973486;28;20039;-77
2022/02/15 04:54:09;;;;;;;1.60;0.80;;;7.40;99.90;;;;;;4973056;28;20033;-77
2022/02/15 04:56:35;;;;;;;2.50;1.15;;;7.40;99.90;;;;;;4973438;28;20026;-77
2022/02/15 04:59:00;;;;;;;3.20;0.98;;;7.40;99.90;;;;;;4973240;28;20407;-79
2022/02/15 05:01:26;;;;;;;5.17;0.90;;;7.40;99.90;;;;;;4972977;28;20030;-77
2022/02/15 05:03:51;;;;;;;1.77;0.87;;;7.40;99.90;;;;;;4973267;28;20031;-77
2022/02/15 05:06:17;;;;;;;2.00;0.90;;;7.40;99.90;;;;;;4973868;28;20038;-77
2022/02/15 05:08:43;;;;;;;1.50;0.90;;;7.50;99.90;;;;;;4974299;28;20361;-77
2022/02/15 05:11:08;;;;;;;1.00;0.70;;;7.40;99.90;;;;;;4972596;28;20035;-77
2022/02/15 05:13:34;;;;;;;3.87;0.90;;;7.40;99.90;;;;;;4973132;28;20026;-77
2022/02/15 05:16:01;;;;;;;3.47;1.55;;;7.50;99.90;;;;;;4972909;28;20119;-76
2022/02/15 05:18:27;;;;;;;1.50;1.08;;;7.40;99.90;;;;;;4973303;28;20455;-77
2022/02/15 05:20:53;;;;;;;1.67;0.95;;;7.40;99.90;;;;;;4975830;28;20077;-77
2022/02/15 05:23:19;;;;;;;3.10;1.10;;;7.40;99.90;;;;;;4975338;28;20030;-77
2022/02/15 05:25:44;;;;;;;3.10;1.20;;;7.40;99.90;;;;;;4976048;28;20113;-77
2022/02/15 05:28:10;;;;;;;1.25;0.90;;;7.40;99.90;;;;;;4992954;28;20026;-77
2022/02/15 05:30:36;;;;;;;3.07;1.50;;;7.30;99.90;;;;;;4976628;28;20049;-77
2022/02/15 05:33:02;;;;;;;2.67;1.20;;;7.30;99.90;;;;;;4976048;28;20030;-79
2022/02/15 05:35:28;;;;;;;5.27;1.73;;;7.30;99.90;;;;;;4993058;28;20494;-76
2022/02/15 05:37:53;;;;;;;3.77;1.30;;;7.30;99.90;;;;;;4975649;28;20022;-76
2022/02/15 05:40:19;;;;;;;3.40;1.43;;;7.20;99.90;;;;;;4992434;28;20033;-76
2022/02/15 05:42:45;;;;;;;2.77;1.33;;;7.20;99.90;;;;;;4976064;28;20121;-76
2022/02/15 05:45:11;;;;;;;4.63;1.37;;;7.10;99.90;;;;;;4976755;28;20030;-77
2022/02/15 05:47:38;;;;;;;3.80;1.60;;;7.10;99.90;;;;;;4979663;28;20072;-77
2022/02/15 05:52:48;;;;;;;2.93;1.27;;;7.10;99.90;;;;;;4996925;28;20133;-77
2022/02/15 05:55:15;;;;;;;3.53;1.60;;;7.10;99.90;;;;;;4978862;28;20515;-77
2022/02/15 05:57:41;;;;;;;4.53;1.73;;;7.10;99.90;;;;;;4979565;28;20435;-76
2022/02/15 06:00:08;;;;;;;3.00;1.47;;;7.00;99.90;;;;;;4995677;28;20022;-80
2022/02/15 06:02:34;;;;;;;3.93;1.90;;;7.00;99.90;;;;;;4979369;28;20037;-76
2022/02/15 06:04:59;;;;;;;3.87;1.80;;;7.00;99.90;;;;;;4978969;28;20034;-77
2022/02/15 06:07:25;;;;;;;4.30;1.87;;;7.00;99.90;;;;;;4995695;28;20023;-77
2022/02/15 06:09:51;;;;;;;4.33;1.80;;;7.00;99.90;;;;;;4978696;28;20423;-77
2022/02/15 06:12:16;;;;;;;3.83;1.60;;;7.00;99.90;;;;;;4978520;28;20077;-76
2022/02/15 06:14:42;;;;;;;4.27;1.73;;;7.00;99.90;;;;;;4979078;28;20491;-76
2022/02/15 06:17:07;;;;;;;3.33;1.90;;;7.00;99.90;;;;;;4978668;28;20121;-79
2022/02/15 06:19:33;;;;;;;3.80;1.70;;;7.00;99.90;;;;;;4978660;28;20085;-76
2022/02/15 06:21:59;;;;;;;3.90;1.80;;;6.90;99.90;;;;;;4978971;28;20035;-76
2022/02/15 06:24:24;;;;;;;3.00;1.70;;;7.00;99.90;;;;;;4995816;28;20030;-77
2022/02/15 06:26:51;;;;;;;7.73;2.20;;;7.00;99.90;;;;;;4979070;28;20023;-77
2022/02/15 06:29:16;;;;;;;3.27;1.60;;;6.90;99.90;;;;;;4978468;28;20112;-78
2022/02/15 06:31:42;;;;;;;3.13;1.97;;;6.90;99.90;;;;;;4979098;28;20066;-78
2022/02/15 06:34:08;;;;;;;3.17;1.87;;;6.90;99.90;;;;;;4978886;28;20034;-80
2022/02/15 06:36:34;;;;;;;5.37;2.10;;;6.90;99.90;;;;;;4978182;28;20031;-76
2022/02/15 06:39:00;;;;;;;7.00;2.00;;;6.90;99.90;;;;;;4977934;28;20502;-76
2022/02/15 06:41:26;;;;;;;5.17;2.00;;;6.90;99.90;;;;;;4977669;28;20030;-77
2022/02/15 06:43:52;;;;;;;4.00;2.00;;;6.90;99.90;;;;;;4978528;28;20030;-76
2022/02/15 06:46:18;;;;;;;4.80;1.63;;;6.80;99.90;;;;;;4977661;28;20041;-77
2022/02/15 06:48:44;;;;;;;4.37;1.80;;;6.90;99.90;;;;;;4978206;28;20034;-76
2022/02/15 06:51:10;;;;;;;4.47;2.10;;;6.90;99.90;;;;;;4977763;28;20041;-80
2022/02/15 06:53:36;;;;;;;4.80;1.73;;;6.90;99.90;;;;;;4978540;28;20052;-77
2022/02/15 06:56:02;;;;;;;6.37;2.00;;;6.90;99.90;;;;;;4995174;28;20468;-77
2022/02/15 06:58:28;;;;;;;2.87;1.60;;;6.90;99.90;;;;;;4977206;28;20607;-77
2022/02/15 07:00:54;;;;;;;3.20;2.00;;;7.00;99.90;;;;;;4995640;28;20027;-77
2022/02/15 07:03:19;;;;;;;4.07;1.70;;;6.90;99.90;;;;;;4994983;28;20514;-77
2022/02/15 07:05:45;;;;;;;3.47;1.77;;;6.90;99.90;;;;;;4978439;28;20031;-77
2022/02/15 07:08:11;;;;;;;8.87;2.27;;;6.90;99.90;;;;;;4977905;28;20033;-80
2022/02/15 07:10:36;;;;;;;4.10;1.90;;;7.00;99.90;;;;;;4977797;28;20134;-77
2022/02/15 07:13:03;;;;;;;5.47;2.10;;;7.00;99.90;;;;;;4978326;28;20066;-77
2022/02/15 07:15:29;;;;;;;3.43;2.10;;;7.00;99.90;;;;;;4977242;28;20182;-77
2022/02/15 07:17:56;;;;;;;2.73;1.80;;;7.00;99.90;;;;;;4978085;28;20523;-78
2022/02/15 07:20:22;;;;;;;3.07;1.80;;;6.90;99.90;;;;;;4977023;28;20070;-78
2022/02/15 07:22:48;;;;;;;5.20;2.20;;;6.90;99.90;;;;;;4977880;28;20026;-79
2022/02/15 07:25:14;;;;;;;4.13;1.83;;;7.00;99.90;;;;;;4977275;28;20022;-78
2022/02/15 07:27:40;;;;;;;4.07;2.10;;;7.00;99.90;;;;;;4977470;28;20121;-77
2022/02/15 07:30:07;;;;;;;4.43;1.93;;;7.00;99.90;;;;;;4995284;28;20113;-77
2022/02/15 07:32:33;;;;;;;8.87;2.20;;;7.00;99.90;;;;;;4977065;28;20030;-77
2022/02/15 07:34:59;;;;;;;5.73;2.27;;;7.10;99.90;;;;;;4977357;28;20037;-77
2022/02/15 07:37:26;;;;;;;6.27;2.33;;;7.10;99.90;;;;;;4976436;28;20483;-76
2022/02/15 07:39:52;;;;;;;4.20;2.10;;;7.10;99.90;;;;;;4976894;28;20403;-76
2022/02/15 07:42:18;;;;;;;2.87;2.03;;;7.10;99.90;;;;;;4976420;28;20039;-77
2022/02/15 07:44:44;;;;;;;5.53;2.30;;;7.20;99.90;;;;;;4977482;28;20427;-77
2022/02/15 07:47:10;;;;;;;4.17;2.47;;;7.20;99.90;;;;;;4977230;28;20027;-80
2022/02/15 07:49:36;;;;;;;4.50;2.30;;;7.20;99.90;;;;;;4976997;28;20034;-77
2022/02/15 07:52:04;;;;;;;3.47;2.50;;;7.20;99.90;;;;;;4994311;28;20056;-77
2022/02/15 07:54:30;;;;;;;3.70;2.17;;;7.20;99.90;;;;;;4976326;28;20049;-76
2022/02/15 07:56:56;;;;;;;5.20;2.40;;;7.20;99.90;;;;;;4976968;28;20026;-77
2022/02/15 07:59:21;;;;;;;3.70;2.47;;;7.20;99.90;;;;;;4976126;28;20072;-77
2022/02/15 08:01:47;;;;;;;4.90;2.60;;;7.20;99.90;;;;;;4976931;28;20034;-77
2022/02/15 08:04:13;;;;;;;5.90;2.40;;;7.10;99.90;;;;;;4994203;28;20431;-80
2022/02/15 08:06:42;;;;;;;4.80;2.77;;;7.10;99.90;;;;;;4976914;28;20053;-78
2022/02/15 08:09:14;;;;;;;5.23;3.00;;;7.10;99.90;;;;;;4976562;28;20386;-78
2022/02/15 08:11:44;;;;;;;6.60;2.55;;;7.20;99.90;;;;;;4976914;28;20026;-77
2022/02/15 08:14:13;;;;;;;4.90;2.47;;;7.20;99.90;;;;;;4976720;28;20386;-78
2022/02/15 08:16:38;;;;;;;3.60;2.53;;;7.30;99.90;;;;;;4976485;28;20038;-79
2022/02/15 08:19:04;;;;;;;5.30;2.50;;;7.30;99.90;;;;;;4976187;28;20054;-79
2022/02/15 08:21:30;;;;;;;4.55;2.10;;;7.40;99.90;;;;;;4993923;28;20030;-78
2022/02/15 08:23:55;;;;;;;8.37;2.50;;;7.40;99.90;;;;;;4976938;28;20113;-78
2022/02/15 08:26:22;;;;;;;5.05;3.00;;;7.40;99.90;;;;;;4976452;28;20063;-79
2022/02/15 08:28:48;;;;;;;6.40;2.77;;;7.40;99.90;;;;;;4977091;28;20041;-78
2022/02/15 08:31:13;;;;;;;6.10;2.80;;;7.40;99.90;;;;;;4976001;28;20034;-81
2022/02/15 08:33:39;;;;;;;5.47;2.92;;;7.50;99.90;;;;;;4976388;28;20380;-78
2022/02/15 08:36:05;;;;;;;5.40;2.80;;;7.50;99.90;;;;;;4976438;28;20057;-78
2022/02/15 08:38:34;;;;;;;4.77;2.77;;;7.50;99.90;;;;;;4975426;28;20026;-78
2022/02/15 08:41:01;;;;;;;4.88;2.72;;;7.60;99.90;;;;;;4975851;28;20058;-78
2022/02/15 08:43:27;;;;;;;3.87;2.43;;;7.60;99.90;;;;;;4975812;28;20030;-77
2022/02/15 08:45:53;;;;;;;6.50;3.22;;;7.60;99.90;;;;;;4976254;28;20032;-78
2022/02/15 08:48:18;;;;;;;6.22;2.95;;;7.70;99.90;;;;;;4975857;28;20035;-78
2022/02/15 08:50:44;;;;;;;5.05;2.72;;;7.60;99.90;;;;;;4975930;28;20122;-78
2022/02/15 08:53:09;;;;;;;4.82;2.80;;;7.60;99.90;;;;;;4976231;28;20023;-78
2022/02/15 08:55:35;;;;;;;7.10;2.75;;;7.70;99.90;;;;;;4975741;28;20045;-79
2022/02/15 08:58:01;;;;;;;7.40;3.08;;;7.70;99.90;;;;;;4976291;28;20034;-78
2022/02/15 09:00:26;;;;;;;7.17;2.90;;;7.70;99.90;;;;;;4975644;28;20056;-78
2022/02/15 09:02:52;;;;;;;6.95;3.15;;;7.60;99.90;;;;;;4993554;28;20076;-78
2022/02/15 09:05:18;;;;;;;6.03;2.92;;;7.60;99.90;;;;;;4975517;28;20053;-78
2022/02/15 09:07:43;;;;;;;7.55;2.97;;;7.60;99.90;;;;;;4976505;28;20034;-77
2022/02/15 09:10:09;;;;;;;4.95;2.97;;;7.60;99.90;;;;;;4993924;28;20092;-77
2022/02/15 09:12:35;;;;;;;6.30;2.92;;;7.60;99.90;;;;;;4976334;28;20026;-80
2022/02/15 09:15:03;;;;;;;7.70;3.70;;;7.70;99.90;;;;;;4974484;28;20422;-77
2022/02/15 09:17:28;;;;;;;4.90;2.60;;;7.70;99.90;;;;;;4976157;28;20034;-77
2022/02/15 09:19:54;;;;;;;5.65;2.65;;;7.70;99.90;;;;;;4973878;28;20059;-78
2022/02/15 09:22:20;;;;;;;5.05;2.92;;;7.80;99.90;;;;;;4976326;28;20050;-78
2022/02/15 09:24:45;;;;;;;5.05;2.72;;;7.80;99.90;;;;;;4976030;28;20038;-77
2022/02/15 09:27:12;;;;;;;5.28;2.65;;;7.80;99.90;;;;;;4976271;28;20026;-79
2022/02/15 09:29:38;;;;;;;7.85;2.90;;;7.80;99.90;;;;;;4976159;28;20077;-77
2022/02/15 09:32:04;;;;;;;7.28;3.55;;;7.80;99.90;;;;;;4975643;28;20054;-77
2022/02/15 09:34:30;;;;;;;8.45;3.05;;;7.90;99.90;;;;;;4975808;28;20023;-77
2022/02/15 09:36:55;;;;;;;5.32;2.92;;;7.90;99.90;;;;;;4976372;28;20022;-77
2022/02/15 09:39:21;;;;;;;6.90;2.55;;;8.00;99.90;;;;;;4976974;28;20031;-78
2022/02/15 09:41:47;;;;;;;4.97;2.40;;;8.10;99.90;;;;;;4976048;28;20031;-78
2022/02/15 09:44:13;;;;;;;3.97;2.25;;;8.20;99.90;;;;;;4975511;28;20034;-76
2022/02/15 09:46:44;;;;;;;4.75;2.70;;;8.20;99.90;;;;;;4975591;28;20037;-77
2022/02/15 09:49:48;;;;;;;4.65;2.58;;;8.30;99.90;;;;;;4976243;28;20038;-76
2022/02/15 09:51:56;;;;;;;6.15;2.05;;;8.30;99.90;;;;;;4978081;28;20066;-77
2022/02/15 09:54:22;;;;;;;3.83;2.30;;;8.30;99.90;;;;;;4976027;28;20408;-76
2022/02/15 09:56:47;;;;;;;4.00;2.00;;;8.40;99.90;;;;;;4977092;28;20070;-78
2022/02/15 09:59:14;;;;;;;3.42;2.15;;;8.50;99.90;;;;;;4976611;28;20034;-77
2022/02/15 10:01:40;;;;;;;3.15;2.03;;;8.50;99.90;;;;;;4975530;28;20054;-77
2022/02/15 10:04:07;;;;;;;4.93;2.25;;;8.50;99.90;;;;;;4978103;28;20492;-77
2022/02/15 10:06:35;;;;;;;7.35;2.63;;;8.50;99.90;;;;;;4975554;28;20038;-77
2022/02/15 10:09:03;;;;;;;5.65;2.00;;;8.50;99.90;;;;;;4975639;28;20039;-76
2022/02/15 10:11:42;;;;;;;3.42;2.25;;;8.50;99.90;;;;;;4975501;28;20030;-76
2022/02/15 10:14:09;;;;;;;9.18;2.30;;;8.60;99.90;;;;;;4975485;28;20380;-77
2022/02/15 10:16:50;;;;;;;2.95;2.10;;;8.60;99.90;;;;;;4975349;28;20029;-77
2022/02/15 10:19:29;;;;;;;3.47;2.22;;;8.70;99.90;;;;;;4975385;28;20051;-77
2022/02/15 10:21:57;;;;;;;3.50;1.83;;;8.70;99.90;;;;;;4975827;28;20031;-77
2022/02/15 10:24:28;;;;;;;3.45;1.80;;;8.80;99.90;;;;;;4975014;28;20031;-75
2022/02/15 10:26:59;;;;;;;4.35;2.20;;;8.80;99.90;;;;;;4975624;28;20070;-76
2022/02/15 10:29:27;;;;;;;4.50;2.40;;;8.80;99.90;;;;;;4975765;28;20031;-77
2022/02/15 10:32:01;;;;;;;4.88;2.00;;;8.80;99.90;;;;;;4974337;28;20038;-77
2022/02/15 10:34:28;;;;;;;6.97;2.20;;;8.80;99.90;;;;;;4974782;28;20029;-76
2022/02/15 10:37:05;;;;;;;2.50;1.77;;;8.90;99.90;;;;;;4976318;28;20033;-77
2022/02/15 10:39:57;;;;;;;11.45;2.40;;;8.90;99.90;;;;;;4974767;28;20041;-77
2022/02/15 10:42:27;;;;;;;2.30;1.63;;;9.00;99.90;;;;;;4969755;28;20050;-78
2022/02/15 10:44:59;;;;;;;4.00;1.85;;;9.00;99.90;;;;;;4956016;29;20031;-76
2022/02/15 10:47:27;;;;;;;2.35;1.73;;;9.00;99.90;;;;;;4955315;28;20058;-77
2022/02/15 10:49:56;;;;;;;5.68;1.90;;;9.00;99.90;;;;;;4975787;28;20070;-76
2022/02/15 10:52:22;;;;;;;3.47;1.80;;;8.90;99.90;;;;;;4974251;28;20027;-78
2022/02/15 10:54:47;;;;;;;3.63;1.95;;;8.90;99.90;;;;;;4975436;28;20035;-77
2022/02/15 10:57:15;;;;;;;4.60;1.70;;;8.90;99.90;;;;;;4974448;28;20384;-76
2022/02/15 10:59:42;;;;;;;3.97;1.88;;;8.90;99.90;;;;;;4973229;28;20038;-76
2022/02/15 11:02:20;;;;;;;4.53;1.65;;;8.90;99.90;;;;;;4974449;28;20038;-77
2022/02/15 11:04:48;;;;;;;3.83;1.77;;;8.90;99.90;;;;;;4974148;28;20027;-77
2022/02/15 11:07:15;;;;;;;4.65;1.52;;;8.90;99.90;;;;;;4974426;28;20432;-77
2022/02/15 11:09:55;;;;;;;2.80;1.73;;;8.90;99.90;;;;;;4974828;28;20085;-77
2022/02/15 11:12:24;;;;;;;4.72;1.88;;;9.00;99.90;;;;;;4974086;28;20109;-76
2022/02/15 11:14:54;;;;;;;4.50;1.63;;;9.00;99.90;;;;;;4973871;28;20031;-77
2022/02/15 11:17:20;;;;;;;2.80;1.55;;;9.00;99.90;;;;;;4974098;28;20073;-77
2022/02/15 11:20:00;;;;;;;4.18;1.77;;;9.00;99.90;;;;;;4973163;28;20082;-77
2022/02/15 11:22:26;;;;;;;8.05;1.90;;;9.10;99.90;;;;;;4973312;28;20548;-78
2022/02/15 11:24:51;;;;;;;6.60;2.00;;;9.10;99.90;;;;;;4973668;28;20114;-77
2022/02/15 11:27:20;;;;;;;4.38;1.85;;;9.20;99.90;;;;;;4974479;28;20472;-76
2022/02/15 11:29:54;;;;;;;4.10;1.95;;;9.20;99.90;;;;;;4973329;28;20034;-77
2022/02/15 11:32:29;;;;;;;7.35;3.28;;;9.10;99.90;;;;;;4973750;28;20113;-76
2022/02/15 11:34:55;;;;;;;3.85;2.20;;;8.90;99.90;;;;;;4955982;28;20031;-76
2022/02/15 11:37:23;;;;;;;4.18;2.17;;;8.90;99.90;;;;;;4970055;28;20031;-76
2022/02/15 11:40:00;;;;;;;3.75;2.13;;;9.00;99.90;;;;;;4974260;28;20074;-76
2022/02/15 11:42:26;;;;;;;5.57;2.25;;;9.10;99.90;;;;;;4972405;28;20031;-78
2022/02/15 11:44:54;;;;;;;3.30;1.80;;;9.10;99.90;;;;;;4973733;28;20049;-78
2022/02/15 11:47:31;;;;;;;2.75;1.88;;;9.10;99.90;;;;;;4975262;28;20027;-77
2022/02/15 11:50:09;;;;;;;3.40;1.83;;;9.10;99.90;;;;;;4974069;28;20454;-77
2022/02/15 11:52:34;;;;;;;4.13;1.80;;;9.00;99.90;;;;;;4973441;28;20031;-77
2022/02/15 11:55:12;;;;;;;4.82;2.30;;;8.80;99.90;;;;;;4973622;28;20030;-77
2022/02/15 11:57:38;;;;;;;2.40;1.60;;;8.70;99.90;;;;;;4957625;28;20037;-77
2022/02/15 12:00:06;;;;;;;2.40;1.52;;;8.80;99.90;;;;;;4974403;28;20081;-77
2022/02/15 12:02:31;;;;;;;2.00;1.25;;;8.80;99.90;;;;;;4974214;28;20059;-77
2022/02/15 12:05:04;;;;;;;3.30;1.65;;;8.80;99.90;;;;;;4973671;28;20483;-77
2022/02/15 12:07:30;;;;;;;2.53;1.35;;;8.90;99.90;;;;;;4974363;28;20054;-78
2022/02/15 12:10:05;;;;;;;2.55;1.05;;;9.00;99.90;;;;;;4973469;28;20035;-77
2022/02/15 12:12:40;;;;;;;1.92;1.10;;;9.00;99.90;;;;;;4972605;28;20039;-77
2022/02/15 12:15:07;;;;;;;1.20;0.77;;;9.10;99.90;;;;;;4973224;28;20026;-77
2022/02/15 12:17:40;;;;;;;2.50;0.80;;;9.10;99.90;;;;;;4973447;28;20039;-77
2022/02/15 12:20:07;;;;;;;2.00;0.90;;;9.10;99.90;;;;;;4972281;28;20062;-77
2022/02/15 12:22:39;;;;;;;1.95;0.93;;;9.20;99.90;;;;;;4972280;28;20033;-76
2022/02/15 12:25:05;;;;;;;;;;;9.20;99.90;;;;;;4972743;28;20030;-77
2022/02/15 12:27:30;;;;;;;1.63;0.88;;;9.30;99.90;;;;;;4972871;28;19988;-78
2022/02/15 12:29:56;;;;;;;1.33;0.90;;;9.40;99.90;;;;;;4974349;28;20053;-77
2022/02/15 12:32:27;;;;;;;0.95;0.55;;;9.80;99.90;;;;;;4973627;28;20027;-78
2022/02/15 12:34:54;;;;;;;3.88;1.00;;;10.20;99.90;;;;;;4973614;28;20027;-77
2022/02/15 12:37:22;;;;;;;1.65;0.73;;;10.30;98.00;;;;;;4973607;28;20146;-78
2022/02/15 12:39:52;;;;;;;2.00;0.70;;;10.10;97.50;;;;;;4972598;28;20119;-78
2022/02/15 12:42:19;;;;;;;4.22;1.30;;;9.80;97.50;;;;;;4973048;28;20037;-77
2022/02/15 12:45:08;;;;;;;1.05;0.60;;;9.70;98.20;;;;;;4972106;28;20034;-78
2022/02/15 12:47:37;;;;;;;4.47;0.85;;;9.60;98.20;;;;;;4972847;28;20026;-77
2022/02/15 12:50:04;;;;;;;3.55;1.10;;;9.70;98.40;;;;;;4972968;28;20042;-78
2022/02/15 12:52:32;;;;;;;1.95;1.10;;;9.70;98.90;;;;;;4972584;28;20026;-79
2022/02/15 12:55:00;;;;;;;3.33;1.00;;;9.80;98.90;;;;;;4972663;28;20383;-78
2022/02/15 12:57:27;;;;;;;3.30;0.85;;;9.80;98.60;;;;;;4972314;28;20122;-78
2022/02/15 12:59:56;;;;;;;1.88;1.00;;;9.80;98.90;;;;;;4972609;28;20038;-78
2022/02/15 13:02:23;;;;;;;2.80;1.00;;;9.90;98.70;;;;;;4972529;28;20026;-78
2022/02/15 13:04:50;;;;;;;1.60;1.15;;;9.80;97.80;;;;;;4971898;28;20043;-78